createdAt,value
2023-05-06T00:00:31.763Z,7.65
2023-05-06T00:03:34.721Z,8.02
2023-05-06T00:06:37.277Z,8.20
2023-05-06T00:09:39.413Z,7.93
2023-05-06T00:12:41.518Z,7.43
2023-05-06T00:15:43.620Z,8.20
2023-05-06T00:18:45.728Z,7.57
2023-05-06T00:21:48.017Z,9.52
2023-05-06T00:24:50.524Z,8.32
2023-05-06T00:27:53.661Z,8.10
2023-05-06T00:30:55.794Z,6.53
2023-05-06T00:33:57.917Z,8.13
2023-05-06T00:37:00.128Z,7.60
2023-05-06T00:40:03.642Z,7.47
2023-05-06T00:43:06.431Z,6.78
2023-05-06T00:46:11.986Z,8.07
2023-05-06T00:49:14.869Z,7.85
2023-05-06T00:52:18.793Z,7.53
2023-05-06T00:55:22.233Z,8.98
2023-05-06T00:58:24.373Z,7.80
2023-05-06T01:01:27.894Z,6.50
2023-05-06T01:04:31.251Z,6.38
2023-05-06T01:07:58.174Z,7.07
2023-05-06T01:11:28.137Z,7.53
2023-05-06T01:14:56.375Z,6.15
2023-05-06T01:18:01.118Z,6.93
2023-05-06T01:21:05.576Z,6.25
2023-05-06T01:24:07.774Z,6.90
2023-05-06T01:27:11.825Z,7.10
2023-05-06T01:30:16.247Z,6.95
2023-05-06T01:33:39.953Z,5.97
2023-05-06T01:37:11.039Z,6.93
2023-05-06T01:40:15.526Z,8.13
2023-05-06T01:43:19.814Z,7.32
2023-05-06T01:46:22.791Z,7.82
2023-05-06T01:49:27.838Z,7.82
2023-05-06T01:52:29.912Z,7.43
2023-05-06T01:55:32.458Z,7.20
2023-05-06T01:58:34.967Z,7.78
2023-05-06T02:01:37.121Z,7.10
2023-05-06T02:04:39.903Z,8.40
2023-05-06T02:07:43.371Z,7.40
2023-05-06T02:10:47.417Z,7.90
2023-05-06T02:13:49.858Z,8.35
2023-05-06T02:16:55.614Z,6.20
2023-05-06T02:19:58.936Z,7.15
2023-05-06T02:23:01.094Z,6.88
2023-05-06T02:26:05.689Z,6.68
2023-05-06T02:29:08.477Z,6.30
2023-05-06T02:32:10.602Z,7.03
2023-05-06T02:35:12.872Z,7.57
2023-05-06T02:38:14.932Z,7.00
2023-05-06T02:41:17.055Z,7.55
2023-05-06T02:44:20.403Z,6.30
2023-05-06T02:47:22.540Z,7.25
2023-05-06T02:50:24.661Z,6.18
2023-05-06T02:53:26.729Z,7.10
2023-05-06T02:56:28.783Z,7.50
2023-05-06T02:59:31.228Z,6.18
2023-05-06T03:02:34.708Z,7.10
2023-05-06T03:05:36.839Z,7.43
2023-05-06T03:08:39.055Z,7.03
2023-05-06T03:11:42.688Z,7.63
2023-05-06T03:14:45.027Z,7.72
2023-05-06T03:17:48.040Z,8.02
2023-05-06T03:20:51.357Z,7.35
2023-05-06T03:23:54.865Z,6.82
2023-05-06T03:27:02.546Z,7.40
2023-05-06T03:30:05.827Z,6.60
2023-05-06T03:33:08.935Z,7.88
2023-05-06T03:36:13.433Z,8.10
2023-05-06T03:39:17.791Z,6.60
2023-05-06T03:42:20.848Z,7.63
2023-05-06T03:45:25.711Z,7.05
2023-05-06T03:48:29.239Z,7.03
2023-05-06T03:51:33.176Z,6.55
2023-05-06T03:54:36.957Z,7.85
2023-05-06T03:57:40.568Z,7.55
2023-05-06T04:00:46.868Z,7.88
2023-05-06T04:03:49.138Z,7.63
2023-05-06T04:06:51.268Z,6.63
2023-05-06T04:09:53.592Z,7.00
2023-05-06T04:12:56.303Z,6.88
2023-05-06T04:16:11.605Z,6.78
2023-05-06T04:19:18.011Z,7.88
2023-05-06T04:22:21.496Z,7.93
2023-05-06T04:25:24.606Z,8.55
2023-05-06T04:28:35.216Z,7.43
2023-05-06T04:31:38.772Z,7.00
2023-05-06T04:34:48.522Z,9.38
2023-05-06T04:37:51.787Z,7.80
2023-05-06T04:40:59.812Z,8.32
2023-05-06T04:44:08.257Z,8.57
2023-05-06T04:47:21.601Z,8.00
2023-05-06T04:50:26.516Z,8.63
2023-05-06T04:53:29.349Z,7.95
2023-05-06T04:56:38.653Z,8.85
2023-05-06T04:59:43.523Z,7.45
2023-05-06T05:02:45.975Z,7.75
2023-05-06T05:05:53.174Z,6.70
2023-05-06T05:09:03.616Z,8.02
2023-05-06T05:12:07.437Z,6.50
2023-05-06T05:15:22.471Z,8.95
2023-05-06T05:18:26.423Z,7.15
2023-05-06T05:21:33.056Z,6.55
2023-05-06T05:24:39.035Z,6.85
2023-05-06T05:27:42.364Z,7.13
2023-05-06T05:30:46.097Z,7.30
2023-05-06T05:33:48.394Z,7.43
2023-05-06T05:36:54.204Z,6.53
2023-05-06T05:39:56.838Z,6.70
2023-05-06T05:42:59.277Z,8.52
2023-05-06T05:46:12.201Z,14.85
2023-05-06T05:49:18.004Z,8.77
2023-05-06T05:52:20.925Z,7.57
2023-05-06T05:55:25.054Z,7.53
2023-05-06T05:58:27.993Z,7.60
2023-05-06T06:01:33.078Z,6.82
2023-05-06T06:04:36.394Z,7.32
2023-05-06T06:07:40.329Z,6.32
2023-05-06T06:10:42.658Z,6.78
2023-05-06T06:13:50.250Z,8.45
2023-05-06T06:16:52.642Z,6.57
2023-05-06T06:19:57.342Z,5.05
2023-05-06T06:23:01.815Z,5.57
2023-05-06T06:26:04.847Z,5.32
2023-05-06T06:29:08.830Z,6.68
2023-05-06T06:32:10.987Z,6.07
2023-05-06T06:35:13.159Z,4.68
2023-05-06T06:38:15.699Z,4.97
2023-05-06T06:41:18.173Z,3.88
2023-05-06T06:44:20.306Z,3.55
2023-05-06T06:47:22.471Z,4.18
2023-05-06T06:50:24.620Z,4.10
2023-05-06T06:53:26.783Z,2.97
2023-05-06T06:56:28.918Z,3.33
2023-05-06T06:59:31.297Z,4.60
2023-05-06T07:02:33.390Z,3.80
2023-05-06T07:05:35.604Z,3.30
2023-05-06T07:08:37.507Z,2.70
2023-05-06T07:11:39.743Z,4.10
2023-05-06T07:14:41.831Z,4.60
2023-05-06T07:17:45.017Z,3.95
2023-05-06T07:20:47.206Z,4.18
2023-05-06T07:23:49.735Z,4.13
2023-05-06T07:26:51.785Z,2.67
2023-05-06T07:29:55.295Z,3.00
2023-05-06T07:33:07.315Z,4.95
2023-05-06T07:36:09.418Z,2.50
2023-05-06T07:39:12.634Z,2.55
2023-05-06T07:42:14.844Z,2.95
2023-05-06T07:45:23.513Z,2.72
2023-05-06T07:48:25.703Z,3.13
2023-05-06T07:51:28.391Z,3.50
2023-05-06T07:54:31.879Z,2.30
2023-05-06T07:57:34.148Z,3.00
2023-05-06T08:00:42.263Z,2.67
2023-05-06T08:03:45.652Z,2.50
2023-05-06T08:06:47.888Z,1.90
2023-05-06T08:09:49.967Z,4.95
2023-05-06T08:12:52.183Z,2.20
2023-05-06T08:15:54.639Z,2.78
2023-05-06T08:18:56.727Z,2.53
2023-05-06T08:21:58.794Z,3.60
2023-05-06T08:25:01.610Z,2.47
2023-05-06T08:28:12.034Z,2.08
2023-05-06T08:31:14.067Z,3.17
2023-05-06T08:34:18.592Z,2.35
2023-05-06T08:37:20.755Z,2.40
2023-05-06T08:41:18.019Z,6.97
2023-05-06T08:44:25.985Z,2.40
2023-05-06T08:47:28.751Z,1.83
2023-05-06T08:50:30.972Z,2.58
2023-05-06T08:53:38.598Z,1.60
2023-05-06T08:56:45.695Z,3.33
2023-05-06T08:59:48.025Z,2.80
2023-05-06T09:02:53.277Z,2.53
2023-05-06T09:05:57.588Z,1.67
2023-05-06T09:09:01.129Z,2.30
2023-05-06T09:12:03.519Z,2.65
2023-05-06T09:15:06.303Z,2.28
2023-05-06T09:18:08.745Z,1.85
2023-05-06T09:21:11.111Z,2.22
2023-05-06T09:24:21.917Z,2.30
2023-05-06T09:27:31.357Z,1.48
2023-05-06T09:30:42.308Z,2.15
2023-05-06T09:33:47.491Z,2.15
2023-05-06T09:36:54.875Z,2.67
2023-05-06T09:40:01.316Z,31.02
2023-05-06T09:43:16.948Z,24.30
2023-05-06T09:46:25.023Z,2.50
2023-05-06T09:49:27.799Z,9.25
2023-05-06T09:52:31.728Z,1.95
2023-05-06T09:55:35.897Z,3.78
2023-05-06T09:58:42.090Z,4.70
2023-05-06T10:01:45.390Z,3.20
2023-05-06T10:04:50.761Z,2.30
2023-05-06T10:07:55.191Z,2.38
2023-05-06T10:11:01.123Z,1.42
2023-05-06T10:14:04.847Z,2.67
2023-05-06T10:17:10.006Z,4.10
2023-05-06T10:20:16.980Z,2.25
2023-05-06T10:23:49.248Z,2.38
2023-05-06T10:26:59.835Z,1.98
2023-05-06T10:30:04.136Z,2.45
2023-05-06T10:33:09.411Z,2.17
2023-05-06T10:36:28.373Z,4.35
2023-05-06T10:39:31.911Z,1.85
2023-05-06T10:42:35.456Z,3.28
2023-05-06T10:46:01.883Z,2.17
2023-05-06T10:49:06.915Z,2.70
2023-05-06T10:52:18.435Z,3.35
2023-05-06T10:55:27.479Z,2.00
2023-05-06T10:58:36.782Z,1.42
2023-05-06T11:01:41.018Z,4.30
2023-05-06T11:04:49.797Z,3.25
2023-05-06T11:07:53.555Z,3.03
2023-05-06T11:10:55.843Z,1.75
2023-05-06T11:14:14.845Z,1.67
2023-05-06T11:17:32.685Z,2.20
2023-05-06T11:20:34.811Z,1.85
2023-05-06T11:24:08.391Z,2.42
2023-05-06T11:27:12.612Z,2.47
2023-05-06T11:30:15.368Z,1.85
2023-05-06T11:33:22.013Z,2.70
2023-05-06T11:36:24.624Z,2.83
2023-05-06T11:39:30.957Z,2.05
2023-05-06T11:42:34.237Z,3.78
2023-05-06T11:45:50.902Z,2.88
2023-05-06T11:48:52.955Z,1.58
2023-05-06T11:51:57.359Z,2.47
2023-05-06T11:54:59.459Z,3.20
2023-05-06T11:58:03.518Z,1.23
2023-05-06T12:01:12.265Z,1.40
2023-05-06T12:04:14.769Z,1.67
2023-05-06T12:07:17.873Z,1.60
2023-05-06T12:10:21.702Z,2.30
2023-05-06T12:13:23.927Z,3.50
2023-05-06T12:16:28.845Z,2.15
2023-05-06T12:19:31.344Z,12.70
2023-05-06T12:22:34.252Z,3.15
2023-05-06T12:25:42.913Z,3.45
2023-05-06T12:28:46.589Z,5.55
2023-05-06T12:31:49.373Z,3.85
2023-05-06T12:34:54.417Z,2.33
2023-05-06T12:37:57.479Z,3.92
2023-05-06T12:40:59.516Z,1.55
2023-05-06T12:44:02.054Z,1.50
2023-05-06T12:47:10.323Z,1.92
2023-05-06T12:50:12.906Z,2.22
2023-05-06T12:53:31.477Z,3.20
2023-05-06T12:56:33.693Z,1.60
2023-05-06T12:59:36.684Z,2.35
2023-05-06T13:02:38.800Z,2.22
2023-05-06T13:05:41.910Z,2.42
2023-05-06T13:08:44.150Z,1.73
2023-05-06T13:11:46.301Z,1.90
2023-05-06T13:14:50.683Z,2.10
2023-05-06T13:17:53.047Z,2.20
2023-05-06T13:20:59.238Z,1.63
2023-05-06T13:24:02.360Z,2.03
2023-05-06T13:27:07.141Z,2.72
2023-05-06T13:30:09.697Z,1.45
2023-05-06T13:33:12.375Z,1.45
2023-05-06T13:36:15.530Z,1.10
2023-05-06T13:39:17.522Z,0.90
2023-05-06T13:42:19.704Z,2.33
2023-05-06T13:45:21.802Z,1.98
2023-05-06T13:48:24.838Z,1.00
2023-05-06T13:51:30.064Z,2.00
2023-05-06T13:54:32.250Z,1.38
2023-05-06T13:57:36.999Z,1.23
2023-05-06T14:00:39.427Z,2.63
2023-05-06T14:03:41.359Z,2.65
2023-05-06T14:06:43.483Z,2.03
2023-05-06T14:09:45.837Z,3.25
2023-05-06T14:12:48.340Z,1.40
2023-05-06T14:15:50.620Z,3.67
2023-05-06T14:18:55.949Z,1.10
2023-05-06T14:21:59.775Z,1.52
2023-05-06T14:25:01.862Z,1.33
2023-05-06T14:28:05.200Z,1.02
2023-05-06T14:31:07.201Z,3.60
2023-05-06T14:34:09.533Z,7.45
2023-05-06T14:37:11.585Z,4.07
2023-05-06T14:40:15.139Z,2.70
2023-05-06T14:43:20.194Z,1.60
2023-05-06T14:46:22.388Z,1.70
2023-05-06T14:49:24.590Z,2.08
2023-05-06T14:52:28.074Z,2.17
2023-05-06T14:55:30.008Z,1.88
2023-05-06T14:58:36.421Z,2.40
2023-05-06T15:01:40.609Z,1.85
2023-05-06T15:04:51.844Z,1.60
2023-05-06T15:07:54.527Z,2.35
2023-05-06T15:10:56.985Z,2.45
2023-05-06T15:13:59.383Z,1.45
2023-05-06T15:17:01.585Z,1.35
2023-05-06T15:20:07.110Z,1.95
2023-05-06T15:23:09.228Z,4.25
2023-05-06T15:26:11.296Z,2.60
2023-05-06T15:29:13.373Z,2.80
2023-05-06T15:32:17.822Z,3.30
2023-05-06T15:35:19.878Z,2.85
2023-05-06T15:38:23.126Z,1.33
2023-05-06T15:41:36.306Z,1.98
2023-05-06T15:44:44.384Z,2.85
2023-05-06T15:47:50.933Z,3.05
2023-05-06T15:50:53.860Z,1.08
2023-05-06T15:53:59.079Z,1.95
2023-05-06T15:57:09.735Z,1.55
2023-05-06T16:00:13.028Z,1.63
2023-05-06T16:03:18.583Z,1.98
2023-05-06T16:06:21.812Z,2.35
2023-05-06T16:09:24.793Z,2.15
2023-05-06T16:12:26.949Z,1.27
2023-05-06T16:15:29.554Z,2.92
2023-05-06T16:18:32.337Z,1.80
2023-05-06T16:21:34.747Z,2.60
2023-05-06T16:24:37.018Z,2.10
2023-05-06T16:27:42.896Z,2.25
2023-05-06T16:34:06.399Z,1.57
2023-05-06T16:37:09.375Z,2.00
2023-05-06T16:40:19.105Z,3.20
2023-05-06T16:43:22.184Z,1.73
2023-05-06T16:46:24.989Z,3.88
2023-05-06T16:49:28.172Z,1.77
2023-05-06T16:52:32.760Z,2.00
2023-05-06T16:55:36.848Z,3.28
2023-05-06T16:58:39.688Z,5.13
2023-05-06T17:01:41.711Z,3.72
2023-05-06T17:04:44.520Z,6.05
2023-05-06T17:07:50.311Z,4.43
2023-05-06T17:10:53.054Z,3.22
2023-05-06T17:13:57.004Z,2.58
2023-05-06T17:17:05.630Z,3.63
2023-05-06T17:20:10.622Z,3.80
2023-05-06T17:23:15.124Z,2.25
2023-05-06T17:26:18.597Z,2.10
2023-05-06T17:29:22.316Z,3.40
2023-05-06T17:32:27.272Z,2.78
2023-05-06T17:35:29.685Z,3.40
2023-05-06T17:38:35.191Z,4.07
2023-05-06T17:41:39.281Z,4.35
2023-05-06T17:44:42.896Z,4.20
2023-05-06T17:47:45.528Z,5.45
2023-05-06T17:50:49.841Z,4.05
2023-05-06T17:53:52.267Z,3.10
2023-05-06T17:56:55.464Z,3.10
2023-05-06T17:59:58.257Z,4.90
2023-05-06T18:03:00.895Z,2.65
2023-05-06T18:06:05.990Z,4.00
2023-05-06T18:09:10.522Z,3.08
2023-05-06T18:12:13.762Z,4.97
2023-05-06T18:15:17.867Z,3.63
2023-05-06T18:18:23.837Z,2.67
2023-05-06T18:21:29.719Z,2.63
2023-05-06T18:24:32.412Z,2.45
2023-05-06T18:27:36.512Z,8.55
2023-05-06T18:30:38.801Z,6.38
2023-05-06T18:33:40.888Z,5.93
2023-05-06T18:36:43.123Z,4.10
2023-05-06T18:39:45.733Z,4.05
2023-05-06T18:42:48.509Z,5.18
2023-05-06T18:45:52.597Z,4.93
2023-05-06T18:48:56.101Z,5.63
2023-05-06T18:51:59.909Z,4.85
2023-05-06T18:55:04.989Z,5.28
2023-05-06T18:58:07.222Z,4.57
2023-05-06T19:01:10.804Z,5.75
2023-05-06T19:04:13.195Z,4.35
2023-05-06T19:07:16.402Z,4.20
2023-05-06T19:10:18.931Z,3.75
2023-05-06T19:13:23.339Z,5.97
2023-05-06T19:16:25.637Z,4.35
2023-05-06T19:19:31.981Z,3.65
2023-05-06T19:22:36.711Z,3.75
2023-05-06T19:25:40.659Z,4.68
2023-05-06T19:28:42.715Z,4.15
2023-05-06T19:31:44.744Z,3.88
2023-05-06T19:34:46.892Z,3.35
2023-05-06T19:38:09.566Z,3.90
2023-05-06T19:41:11.844Z,2.85
2023-05-06T19:44:17.389Z,6.70
2023-05-06T19:47:20.696Z,3.40
2023-05-06T19:50:22.798Z,2.20
2023-05-06T19:53:25.673Z,2.22
2023-05-06T19:56:27.772Z,3.55
2023-05-06T19:59:30.334Z,2.95
2023-05-06T20:02:35.380Z,2.83
2023-05-06T20:05:37.465Z,3.10
2023-05-06T20:08:43.973Z,3.45
2023-05-06T20:11:47.639Z,4.45
2023-05-06T20:14:49.941Z,4.45
2023-05-06T20:17:52.180Z,2.58
2023-05-06T20:20:54.396Z,2.50
2023-05-06T20:23:56.923Z,2.30
2023-05-06T20:26:59.179Z,3.00
2023-05-06T20:30:05.165Z,2.22
2023-05-06T20:33:08.009Z,2.78
2023-05-06T20:36:10.221Z,4.30
2023-05-06T20:39:13.222Z,2.55
2023-05-06T20:42:15.341Z,2.17
2023-05-06T20:45:17.701Z,2.40
2023-05-06T20:48:19.901Z,2.33
2023-05-06T20:51:22.166Z,2.50
2023-05-06T20:54:24.734Z,3.08
2023-05-06T20:57:26.975Z,1.90
2023-05-06T21:00:32.467Z,2.42
2023-05-06T21:03:41.587Z,2.13
2023-05-06T21:06:49.949Z,2.20
2023-05-06T21:09:52.272Z,2.70
2023-05-06T21:12:56.201Z,2.33
2023-05-06T21:15:58.428Z,1.92
2023-05-06T21:19:06.076Z,2.83
2023-05-06T21:22:11.048Z,2.93
2023-05-06T21:25:13.396Z,1.60
2023-05-06T21:28:15.793Z,2.15
2023-05-06T21:31:22.380Z,2.30
2023-05-06T21:34:25.674Z,2.38
2023-05-06T21:37:27.668Z,1.90
2023-05-06T21:40:32.304Z,1.23
2023-05-06T21:43:35.564Z,2.05
2023-05-06T21:46:38.076Z,2.95
2023-05-06T21:49:40.301Z,1.52
2023-05-06T21:52:42.543Z,2.88
2023-05-06T21:55:44.909Z,2.17
2023-05-06T21:58:47.655Z,2.00
2023-05-06T22:01:49.894Z,2.85
2023-05-06T22:04:52.333Z,1.23
2023-05-06T22:07:54.471Z,1.90
2023-05-06T22:10:59.553Z,2.20
2023-05-06T22:14:01.918Z,1.25
2023-05-06T22:17:04.868Z,1.30
2023-05-06T22:20:11.163Z,1.80
2023-05-06T22:23:15.339Z,1.80
2023-05-06T22:26:17.484Z,2.95
2023-05-06T22:29:19.570Z,1.55
2023-05-06T22:32:22.954Z,1.77
2023-05-06T22:35:25.468Z,1.27
2023-05-06T22:38:27.507Z,1.48
2023-05-06T22:41:31.889Z,1.10
2023-05-06T22:44:34.968Z,2.33
2023-05-06T22:47:37.357Z,1.77
2023-05-06T22:50:39.513Z,2.92
2023-05-06T22:53:41.761Z,2.35
2023-05-06T22:56:43.980Z,2.80
2023-05-06T22:59:47.391Z,2.10
2023-05-06T23:02:49.508Z,2.70
2023-05-06T23:05:51.750Z,2.08
2023-05-06T23:08:54.972Z,1.02
2023-05-06T23:11:57.133Z,1.00
2023-05-06T23:15:00.145Z,1.58
2023-05-06T23:18:02.398Z,1.20
2023-05-06T23:21:04.624Z,2.13
2023-05-06T23:24:06.826Z,1.30
2023-05-06T23:27:08.835Z,1.10
2023-05-06T23:30:11.574Z,1.67
2023-05-06T23:33:14.687Z,2.25
2023-05-06T23:36:17.756Z,1.42
2023-05-06T23:39:19.946Z,1.73
2023-05-06T23:42:22.787Z,1.55
2023-05-06T23:45:26.840Z,1.77
2023-05-06T23:48:28.866Z,1.30
2023-05-06T23:51:31.779Z,2.15
2023-05-06T23:54:33.710Z,0.90
2023-05-06T23:57:35.844Z,1.60
